sensor_id;sensor_type;location;lat;lon;timestamp;pressure;altitude;pressure_sealevel;temperature;humidity
64616;BME280;51027;42.162;24.754;2023-05-28T00:01:54;99412.56;;;17.33;100.00
64616;BME280;51027;42.162;24.754;2023-05-28T00:04:20;99417.47;;;17.39;100.00
64616;BME280;51027;42.162;24.754;2023-05-28T00:06:46;99421.53;;;17.32;100.00
64616;BME280;51027;42.162;24.754;2023-05-28T00:09:14;99430.97;;;17.36;100.00
64616;BME280;51027;42.162;24.754;2023-05-28T00:11:39;99436.97;;;17.40;100.00
64616;BME280;51027;42.162;24.754;2023-05-28T00:14:11;99405.69;;;17.05;100.00
64616;BME280;51027;42.162;24.754;2023-05-28T00:16:36;99430.78;;;17.26;100.00
64616;BME280;51027;42.162;24.754;2023-05-28T00:19:03;99427.38;;;17.24;100.00
64616;BME280;51027;42.162;24.754;2023-05-28T00:21:28;99427.84;;;17.18;100.00
64616;BME280;51027;42.162;24.754;2023-05-28T00:23:54;99427.50;;;17.23;100.00
64616;BME280;51027;42.162;24.754;2023-05-28T00:26:19;99418.66;;;17.22;100.00
64616;BME280;51027;42.162;24.754;2023-05-28T00:28:44;99417.06;;;17.20;100.00
64616;BME280;51027;42.162;24.754;2023-05-28T00:31:10;99420.59;;;17.20;100.00
64616;BME280;51027;42.162;24.754;2023-05-28T00:33:36;99409.63;;;17.12;100.00
64616;BME280;51027;42.162;24.754;2023-05-28T00:36:01;99424.13;;;17.08;100.00
64616;BME280;51027;42.162;24.754;2023-05-28T00:38:27;99417.81;;;17.22;100.00
64616;BME280;51027;42.162;24.754;2023-05-28T00:40:52;99389.44;;;16.97;100.00
64616;BME280;51027;42.162;24.754;2023-05-28T00:43:20;99418.44;;;17.25;100.00
64616;BME280;51027;42.162;24.754;2023-05-28T00:45:47;99411.44;;;17.12;100.00
64616;BME280;51027;42.162;24.754;2023-05-28T00:48:14;99407.81;;;17.13;100.00
64616;BME280;51027;42.162;24.754;2023-05-28T00:50:39;99419.19;;;17.27;100.00
64616;BME280;51027;42.162;24.754;2023-05-28T00:53:05;99409.50;;;17.14;100.00
64616;BME280;51027;42.162;24.754;2023-05-28T00:55:31;99413.56;;;17.19;100.00
64616;BME280;51027;42.162;24.754;2023-05-28T00:57:57;99403.66;;;17.21;100.00
64616;BME280;51027;42.162;24.754;2023-05-28T01:00:31;99397.06;;;17.27;100.00
64616;BME280;51027;42.162;24.754;2023-05-28T01:02:57;99411.84;;;17.31;100.00
64616;BME280;51027;42.162;24.754;2023-05-28T01:05:22;99403.72;;;17.33;100.00
64616;BME280;51027;42.162;24.754;2023-05-28T01:07:48;99383.56;;;17.17;100.00
64616;BME280;51027;42.162;24.754;2023-05-28T01:10:14;99394.47;;;17.25;100.00
64616;BME280;51027;42.162;24.754;2023-05-28T01:12:41;99395.56;;;17.23;100.00
64616;BME280;51027;42.162;24.754;2023-05-28T01:15:08;99385.44;;;17.28;100.00
64616;BME280;51027;42.162;24.754;2023-05-28T01:17:34;99391.53;;;17.17;100.00
64616;BME280;51027;42.162;24.754;2023-05-28T01:20:00;99391.38;;;17.32;100.00
64616;BME280;51027;42.162;24.754;2023-05-28T01:22:45;99384.25;;;17.32;100.00
64616;BME280;51027;42.162;24.754;2023-05-28T01:25:12;99387.16;;;17.29;100.00
64616;BME280;51027;42.162;24.754;2023-05-28T01:27:41;99375.88;;;17.13;100.00
64616;BME280;51027;42.162;24.754;2023-05-28T01:30:07;99386.84;;;17.21;100.00
64616;BME280;51027;42.162;24.754;2023-05-28T01:32:35;99347.91;;;16.94;100.00
64616;BME280;51027;42.162;24.754;2023-05-28T01:35:03;99335.81;;;16.78;100.00
64616;BME280;51027;42.162;24.754;2023-05-28T01:37:29;99354.53;;;16.89;100.00
64616;BME280;51027;42.162;24.754;2023-05-28T01:39:56;99341.88;;;16.80;100.00
64616;BME280;51027;42.162;24.754;2023-05-28T01:42:22;99387.59;;;17.10;100.00
64616;BME280;51027;42.162;24.754;2023-05-28T01:44:50;99390.56;;;17.06;100.00
64616;BME280;51027;42.162;24.754;2023-05-28T01:47:16;99378.44;;;17.02;100.00
64616;BME280;51027;42.162;24.754;2023-05-28T01:49:42;99387.06;;;17.18;100.00
64616;BME280;51027;42.162;24.754;2023-05-28T01:52:07;99368.75;;;17.13;100.00
64616;BME280;51027;42.162;24.754;2023-05-28T01:54:34;99363.66;;;17.10;100.00
64616;BME280;51027;42.162;24.754;2023-05-28T01:57:00;99358.88;;;17.03;100.00
64616;BME280;51027;42.162;24.754;2023-05-28T01:59:26;99358.78;;;16.91;100.00
64616;BME280;51027;42.162;24.754;2023-05-28T02:01:51;99386.41;;;17.14;100.00
64616;BME280;51027;42.162;24.754;2023-05-28T02:04:17;99385.88;;;17.22;100.00
64616;BME280;51027;42.162;24.754;2023-05-28T02:06:44;99385.44;;;17.28;100.00
64616;BME280;51027;42.162;24.754;2023-05-28T02:09:11;99388.03;;;17.17;100.00
64616;BME280;51027;42.162;24.754;2023-05-28T02:11:36;99375.34;;;17.20;100.00
64616;BME280;51027;42.162;24.754;2023-05-28T02:14:02;99370.88;;;17.21;100.00
64616;BME280;51027;42.162;24.754;2023-05-28T02:16:29;99373.22;;;17.13;100.00
64616;BME280;51027;42.162;24.754;2023-05-28T02:18:55;99353.56;;;16.90;100.00
64616;BME280;51027;42.162;24.754;2023-05-28T02:21:21;99373.56;;;17.08;100.00
64616;BME280;51027;42.162;24.754;2023-05-28T02:23:48;99371.19;;;17.04;100.00
64616;BME280;51027;42.162;24.754;2023-05-28T02:26:15;99368.44;;;17.05;100.00
64616;BME280;51027;42.162;24.754;2023-05-28T02:28:41;99344.28;;;16.95;100.00
64616;BME280;51027;42.162;24.754;2023-05-28T02:31:10;99369.94;;;17.09;100.00
64616;BME280;51027;42.162;24.754;2023-05-28T02:33:40;99376.41;;;17.18;100.00
64616;BME280;51027;42.162;24.754;2023-05-28T02:36:08;99370.31;;;17.16;100.00
64616;BME280;51027;42.162;24.754;2023-05-28T02:38:33;99360.69;;;17.02;100.00
64616;BME280;51027;42.162;24.754;2023-05-28T02:41:00;99377.81;;;17.11;100.00
64616;BME280;51027;42.162;24.754;2023-05-28T02:43:25;99375.03;;;17.12;100.00
64616;BME280;51027;42.162;24.754;2023-05-28T02:45:50;99379.94;;;17.06;100.00
64616;BME280;51027;42.162;24.754;2023-05-28T02:48:16;99388.97;;;17.03;100.00
64616;BME280;51027;42.162;24.754;2023-05-28T02:50:41;99380.38;;;16.99;100.00
64616;BME280;51027;42.162;24.754;2023-05-28T02:53:07;99387.06;;;17.18;100.00
64616;BME280;51027;42.162;24.754;2023-05-28T02:55:32;99385.25;;;17.06;100.00
64616;BME280;51027;42.162;24.754;2023-05-28T02:57:57;99398.44;;;17.20;100.00
64616;BME280;51027;42.162;24.754;2023-05-28T03:00:23;99405.66;;;17.31;100.00
64616;BME280;51027;42.162;24.754;2023-05-28T03:02:49;99411.28;;;17.26;100.00
64616;BME280;51027;42.162;24.754;2023-05-28T03:05:14;99419.28;;;17.26;100.00
64616;BME280;51027;42.162;24.754;2023-05-28T03:07:40;99395.47;;;17.12;100.00
64616;BME280;51027;42.162;24.754;2023-05-28T03:10:05;99408.44;;;17.29;100.00
64616;BME280;51027;42.162;24.754;2023-05-28T03:12:31;99413.53;;;17.32;100.00
64616;BME280;51027;42.162;24.754;2023-05-28T03:14:57;99412.03;;;17.41;100.00
64616;BME280;51027;42.162;24.754;2023-05-28T03:17:22;99411.72;;;17.33;100.00
64616;BME280;51027;42.162;24.754;2023-05-28T03:19:48;99396.41;;;17.23;100.00
64616;BME280;51027;42.162;24.754;2023-05-28T03:22:13;99418.97;;;17.31;100.00
64616;BME280;51027;42.162;24.754;2023-05-28T03:24:38;99390.97;;;17.25;100.00
64616;BME280;51027;42.162;24.754;2023-05-28T03:27:04;99421.47;;;17.58;100.00
64616;BME280;51027;42.162;24.754;2023-05-28T03:29:31;99397.22;;;17.37;100.00
64616;BME280;51027;42.162;24.754;2023-05-28T03:31:57;99418.63;;;17.35;100.00
64616;BME280;51027;42.162;24.754;2023-05-28T03:34:25;99416.50;;;17.40;100.00
64616;BME280;51027;42.162;24.754;2023-05-28T03:36:51;99372.06;;;17.17;100.00
64616;BME280;51027;42.162;24.754;2023-05-28T03:39:16;99422.06;;;17.37;100.00
64616;BME280;51027;42.162;24.754;2023-05-28T03:41:42;99428.00;;;17.41;100.00
64616;BME280;51027;42.162;24.754;2023-05-28T03:44:09;99427.47;;;17.48;100.00
64616;BME280;51027;42.162;24.754;2023-05-28T03:46:35;99429.09;;;17.38;100.00
64616;BME280;51027;42.162;24.754;2023-05-28T03:49:00;99421.41;;;17.34;100.00
64616;BME280;51027;42.162;24.754;2023-05-28T03:51:26;99426.22;;;17.28;100.00
64616;BME280;51027;42.162;24.754;2023-05-28T03:53:51;99405.03;;;17.14;100.00
64616;BME280;51027;42.162;24.754;2023-05-28T03:56:17;99421.75;;;17.16;100.00
64616;BME280;51027;42.162;24.754;2023-05-28T03:58:45;99424.22;;;17.07;100.00
64616;BME280;51027;42.162;24.754;2023-05-28T04:01:10;99439.13;;;17.09;100.00
64616;BME280;51027;42.162;24.754;2023-05-28T04:03:36;99432.50;;;17.27;100.00
64616;BME280;51027;42.162;24.754;2023-05-28T04:06:01;99437.84;;;17.27;100.00
64616;BME280;51027;42.162;24.754;2023-05-28T04:08:28;99444.00;;;17.28;100.00
64616;BME280;51027;42.162;24.754;2023-05-28T04:10:53;99431.25;;;17.08;100.00
64616;BME280;51027;42.162;24.754;2023-05-28T04:13:18;99446.78;;;17.14;100.00
64616;BME280;51027;42.162;24.754;2023-05-28T04:15:44;99414.13;;;16.86;100.00
64616;BME280;51027;42.162;24.754;2023-05-28T04:18:09;99431.75;;;17.13;100.00
64616;BME280;51027;42.162;24.754;2023-05-28T04:20:35;99454.63;;;17.15;100.00
64616;BME280;51027;42.162;24.754;2023-05-28T04:23:03;99453.06;;;17.00;100.00
64616;BME280;51027;42.162;24.754;2023-05-28T04:25:29;99456.56;;;17.13;100.00
64616;BME280;51027;42.162;24.754;2023-05-28T04:27:55;99447.94;;;17.22;100.00
64616;BME280;51027;42.162;24.754;2023-05-28T04:30:22;99446.78;;;16.88;100.00
64616;BME280;51027;42.162;24.754;2023-05-28T04:32:48;99450.28;;;17.02;100.00
64616;BME280;51027;42.162;24.754;2023-05-28T04:35:16;99460.09;;;16.88;100.00
64616;BME280;51027;42.162;24.754;2023-05-28T04:37:42;99464.66;;;16.99;100.00
64616;BME280;51027;42.162;24.754;2023-05-28T04:40:07;99471.25;;;17.06;100.00
64616;BME280;51027;42.162;24.754;2023-05-28T04:42:37;99472.00;;;16.95;100.00
64616;BME280;51027;42.162;24.754;2023-05-28T04:45:03;99472.97;;;17.07;100.00
64616;BME280;51027;42.162;24.754;2023-05-28T04:47:29;99475.41;;;17.10;100.00
64616;BME280;51027;42.162;24.754;2023-05-28T04:49:54;99469.53;;;17.05;100.00
64616;BME280;51027;42.162;24.754;2023-05-28T04:52:22;99477.00;;;17.13;100.00
64616;BME280;51027;42.162;24.754;2023-05-28T04:54:48;99480.75;;;16.97;100.00
64616;BME280;51027;42.162;24.754;2023-05-28T04:57:13;99454.31;;;16.82;100.00
64616;BME280;51027;42.162;24.754;2023-05-28T04:59:39;99485.00;;;16.87;100.00
64616;BME280;51027;42.162;24.754;2023-05-28T05:02:04;99480.53;;;17.01;100.00
64616;BME280;51027;42.162;24.754;2023-05-28T05:04:30;99480.31;;;17.04;100.00
64616;BME280;51027;42.162;24.754;2023-05-28T05:06:56;99482.22;;;17.02;100.00
64616;BME280;51027;42.162;24.754;2023-05-28T05:09:21;99476.56;;;17.06;100.00
64616;BME280;51027;42.162;24.754;2023-05-28T05:11:48;99464.59;;;16.61;100.00
64616;BME280;51027;42.162;24.754;2023-05-28T05:14:14;99451.06;;;16.51;100.00
64616;BME280;51027;42.162;24.754;2023-05-28T05:16:39;99493.56;;;16.38;100.00
64616;BME280;51027;42.162;24.754;2023-05-28T05:19:05;99489.97;;;16.52;100.00
64616;BME280;51027;42.162;24.754;2023-05-28T05:21:31;99480.53;;;16.48;100.00
64616;BME280;51027;42.162;24.754;2023-05-28T05:23:57;99495.06;;;16.42;100.00
64616;BME280;51027;42.162;24.754;2023-05-28T05:26:22;99495.19;;;16.54;100.00
64616;BME280;51027;42.162;24.754;2023-05-28T05:28:48;99496.66;;;16.72;100.00
64616;BME280;51027;42.162;24.754;2023-05-28T05:31:13;99494.13;;;16.83;100.00
64616;BME280;51027;42.162;24.754;2023-05-28T05:33:40;99491.47;;;16.83;100.00
64616;BME280;51027;42.162;24.754;2023-05-28T05:36:07;99498.06;;;16.78;100.00
64616;BME280;51027;42.162;24.754;2023-05-28T05:38:32;99505.31;;;17.01;100.00
64616;BME280;51027;42.162;24.754;2023-05-28T05:40:58;99492.97;;;16.87;100.00
64616;BME280;51027;42.162;24.754;2023-05-28T05:43:23;99526.25;;;16.93;100.00
64616;BME280;51027;42.162;24.754;2023-05-28T05:45:49;99497.53;;;16.85;100.00
64616;BME280;51027;42.162;24.754;2023-05-28T05:48:14;99520.72;;;16.83;100.00
64616;BME280;51027;42.162;24.754;2023-05-28T05:50:50;99520.66;;;16.97;100.00
64616;BME280;51027;42.162;24.754;2023-05-28T05:53:16;99522.63;;;16.81;100.00
64616;BME280;51027;42.162;24.754;2023-05-28T05:55:42;99516.13;;;16.73;100.00
64616;BME280;51027;42.162;24.754;2023-05-28T05:58:07;99530.84;;;16.78;100.00
64616;BME280;51027;42.162;24.754;2023-05-28T06:00:32;99531.56;;;16.80;100.00
64616;BME280;51027;42.162;24.754;2023-05-28T06:02:59;99509.94;;;16.72;100.00
64616;BME280;51027;42.162;24.754;2023-05-28T06:05:25;99527.56;;;16.87;100.00
64616;BME280;51027;42.162;24.754;2023-05-28T06:07:50;99506.72;;;16.67;100.00
64616;BME280;51027;42.162;24.754;2023-05-28T06:10:16;99538.94;;;16.89;100.00
64616;BME280;51027;42.162;24.754;2023-05-28T06:12:41;99520.22;;;16.64;100.00
64616;BME280;51027;42.162;24.754;2023-05-28T06:15:07;99534.22;;;16.80;100.00
64616;BME280;51027;42.162;24.754;2023-05-28T06:17:33;99532.97;;;16.86;100.00
64616;BME280;51027;42.162;24.754;2023-05-28T06:19:59;99515.06;;;16.75;100.00
64616;BME280;51027;42.162;24.754;2023-05-28T06:22:25;99526.13;;;16.69;100.00
64616;BME280;51027;42.162;24.754;2023-05-28T06:24:50;99532.19;;;16.71;100.00
64616;BME280;51027;42.162;24.754;2023-05-28T06:27:18;99527.09;;;16.81;100.00
64616;BME280;51027;42.162;24.754;2023-05-28T06:29:43;99529.53;;;16.71;100.00
64616;BME280;51027;42.162;24.754;2023-05-28T06:32:08;99530.78;;;16.65;100.00
64616;BME280;51027;42.162;24.754;2023-05-28T06:34:34;99528.56;;;16.72;100.00
64616;BME280;51027;42.162;24.754;2023-05-28T06:36:59;99528.41;;;16.61;100.00
64616;BME280;51027;42.162;24.754;2023-05-28T06:39:25;99500.50;;;16.54;100.00
64616;BME280;51027;42.162;24.754;2023-05-28T06:41:51;99524.03;;;16.60;100.00
64616;BME280;51027;42.162;24.754;2023-05-28T06:44:16;99523.81;;;16.77;100.00
64616;BME280;51027;42.162;24.754;2023-05-28T06:46:42;99529.13;;;16.77;100.00
64616;BME280;51027;42.162;24.754;2023-05-28T06:49:07;99515.28;;;16.72;100.00
64616;BME280;51027;42.162;24.754;2023-05-28T06:51:33;99530.34;;;16.98;100.00
64616;BME280;51027;42.162;24.754;2023-05-28T06:53:58;99528.91;;;16.80;100.00
64616;BME280;51027;42.162;24.754;2023-05-28T06:56:23;99529.47;;;16.98;100.00
64616;BME280;51027;42.162;24.754;2023-05-28T06:58:49;99526.78;;;16.85;100.00
64616;BME280;51027;42.162;24.754;2023-05-28T07:01:17;99533.84;;;16.99;100.00
64616;BME280;51027;42.162;24.754;2023-05-28T07:03:42;99536.63;;;16.97;100.00
64616;BME280;51027;42.162;24.754;2023-05-28T07:06:07;99544.59;;;16.97;100.00
64616;BME280;51027;42.162;24.754;2023-05-28T07:08:33;99539.41;;;17.09;100.00
64616;BME280;51027;42.162;24.754;2023-05-28T07:10:58;99533.66;;;16.75;100.00
64616;BME280;51027;42.162;24.754;2023-05-28T07:13:23;99534.34;;;16.64;100.00
64616;BME280;51027;42.162;24.754;2023-05-28T07:15:50;99531.78;;;16.77;100.00
64616;BME280;51027;42.162;24.754;2023-05-28T07:18:15;99527.75;;;16.84;100.00
64616;BME280;51027;42.162;24.754;2023-05-28T07:20:41;99528.28;;;16.89;100.00
64616;BME280;51027;42.162;24.754;2023-05-28T07:23:06;99526.50;;;17.03;100.00
64616;BME280;51027;42.162;24.754;2023-05-28T07:25:32;99511.66;;;16.73;100.00
64616;BME280;51027;42.162;24.754;2023-05-28T07:27:57;99522.03;;;17.03;100.00
64616;BME280;51027;42.162;24.754;2023-05-28T07:30:22;99514.38;;;17.11;100.00
64616;BME280;51027;42.162;24.754;2023-05-28T07:32:48;99500.63;;;17.05;100.00
64616;BME280;51027;42.162;24.754;2023-05-28T07:35:13;99524.69;;;17.03;100.00
64616;BME280;51027;42.162;24.754;2023-05-28T07:37:39;99522.75;;;17.05;100.00
64616;BME280;51027;42.162;24.754;2023-05-28T07:40:05;99513.06;;;17.04;100.00
64616;BME280;51027;42.162;24.754;2023-05-28T07:42:31;99527.03;;;17.08;100.00
64616;BME280;51027;42.162;24.754;2023-05-28T07:44:56;99531.19;;;17.24;100.00
64616;BME280;51027;42.162;24.754;2023-05-28T07:47:21;99526.53;;;17.28;100.00
64616;BME280;51027;42.162;24.754;2023-05-28T07:49:47;99529.06;;;17.30;100.00
64616;BME280;51027;42.162;24.754;2023-05-28T07:52:12;99534.81;;;17.36;100.00
64616;BME280;51027;42.162;24.754;2023-05-28T07:54:38;99531.31;;;17.48;100.00
64616;BME280;51027;42.162;24.754;2023-05-28T07:57:06;99531.31;;;17.48;100.00
64616;BME280;51027;42.162;24.754;2023-05-28T07:59:32;99526.28;;;17.44;100.00
64616;BME280;51027;42.162;24.754;2023-05-28T08:01:58;99518.19;;;17.33;100.00
64616;BME280;51027;42.162;24.754;2023-05-28T08:04:23;99513.72;;;17.33;100.00
64616;BME280;51027;42.162;24.754;2023-05-28T08:06:49;99522.88;;;17.54;100.00
64616;BME280;51027;42.162;24.754;2023-05-28T08:09:14;99521.72;;;17.33;100.00
64616;BME280;51027;42.162;24.754;2023-05-28T08:11:43;99513.28;;;17.52;100.00
64616;BME280;51027;42.162;24.754;2023-05-28T08:14:09;99518.09;;;17.60;100.00
64616;BME280;51027;42.162;24.754;2023-05-28T08:16:34;99504.03;;;17.45;100.00
64616;BME280;51027;42.162;24.754;2023-05-28T08:18:59;99523.53;;;17.58;100.00
64616;BME280;51027;42.162;24.754;2023-05-28T08:21:26;99505.44;;;17.12;100.00
64616;BME280;51027;42.162;24.754;2023-05-28T08:23:53;99518.00;;;17.23;100.00
64616;BME280;51027;42.162;24.754;2023-05-28T08:26:19;99511.81;;;17.48;100.00
64616;BME280;51027;42.162;24.754;2023-05-28T08:28:45;99512.94;;;17.56;100.00
64616;BME280;51027;42.162;24.754;2023-05-28T08:31:11;99514.56;;;17.46;100.00
64616;BME280;51027;42.162;24.754;2023-05-28T08:33:39;99478.59;;;17.28;100.00
64616;BME280;51027;42.162;24.754;2023-05-28T08:36:05;99471.88;;;17.48;100.00
64616;BME280;51027;42.162;24.754;2023-05-28T08:38:31;99508.44;;;17.95;100.00
64616;BME280;51027;42.162;24.754;2023-05-28T08:41:01;99509.19;;;18.69;100.00
64616;BME280;51027;42.162;24.754;2023-05-28T08:43:26;99513.09;;;18.04;100.00
64616;BME280;51027;42.162;24.754;2023-05-28T08:45:53;99472.50;;;18.01;100.00
64616;BME280;51027;42.162;24.754;2023-05-28T08:48:20;99496.59;;;18.47;100.00
64616;BME280;51027;42.162;24.754;2023-05-28T08:50:48;99476.25;;;18.70;100.00
64616;BME280;51027;42.162;24.754;2023-05-28T08:53:20;99507.81;;;18.87;100.00
64616;BME280;51027;42.162;24.754;2023-05-28T08:55:46;99505.69;;;18.45;100.00
64616;BME280;51027;42.162;24.754;2023-05-28T08:58:13;99501.72;;;18.74;100.00
64616;BME280;51027;42.162;24.754;2023-05-28T09:00:39;99505.13;;;18.52;100.00
64616;BME280;51027;42.162;24.754;2023-05-28T09:03:05;99511.38;;;18.40;100.00
64616;BME280;51027;42.162;24.754;2023-05-28T09:05:37;99493.81;;;18.25;100.00
64616;BME280;51027;42.162;24.754;2023-05-28T09:08:07;99486.84;;;18.35;100.00
64616;BME280;51027;42.162;24.754;2023-05-28T09:10:42;99468.88;;;18.50;100.00
64616;BME280;51027;42.162;24.754;2023-05-28T09:13:07;99488.81;;;19.03;100.00
64616;BME280;51027;42.162;24.754;2023-05-28T09:15:33;99502.97;;;18.92;100.00
64616;BME280;51027;42.162;24.754;2023-05-28T09:18:01;99504.25;;;19.11;100.00
64616;BME280;51027;42.162;24.754;2023-05-28T09:20:27;99498.16;;;19.20;100.00
64616;BME280;51027;42.162;24.754;2023-05-28T09:23:00;99494.31;;;19.35;100.00
64616;BME280;51027;42.162;24.754;2023-05-28T09:25:27;99500.84;;;18.74;100.00
64616;BME280;51027;42.162;24.754;2023-05-28T09:27:54;99471.84;;;19.26;100.00
64616;BME280;51027;42.162;24.754;2023-05-28T09:30:20;99503.19;;;19.58;100.00
64616;BME280;51027;42.162;24.754;2023-05-28T09:32:55;99495.41;;;19.33;100.00
64616;BME280;51027;42.162;24.754;2023-05-28T09:35:20;99502.69;;;19.42;100.00
64616;BME280;51027;42.162;24.754;2023-05-28T09:37:46;99500.03;;;19.42;100.00
64616;BME280;51027;42.162;24.754;2023-05-28T09:40:12;99491.50;;;19.37;100.00
64616;BME280;51027;42.162;24.754;2023-05-28T09:42:39;99498.56;;;19.94;100.00
64616;BME280;51027;42.162;24.754;2023-05-28T09:45:08;99493.59;;;19.78;100.00
64616;BME280;51027;42.162;24.754;2023-05-28T09:47:44;99495.50;;;20.41;100.00
64616;BME280;51027;42.162;24.754;2023-05-28T09:50:10;99495.13;;;19.92;100.00
64616;BME280;51027;42.162;24.754;2023-05-28T09:52:38;99493.66;;;20.10;100.00
64616;BME280;51027;42.162;24.754;2023-05-28T09:55:06;99484.41;;;20.78;100.00
64616;BME280;51027;42.162;24.754;2023-05-28T09:57:32;99482.53;;;20.69;100.00
64616;BME280;51027;42.162;24.754;2023-05-28T10:00:00;99471.69;;;20.91;100.00
64616;BME280;51027;42.162;24.754;2023-05-28T10:02:48;99478.28;;;20.66;100.00
64616;BME280;51027;42.162;24.754;2023-05-28T10:05:19;99484.84;;;20.62;100.00
64616;BME280;51027;42.162;24.754;2023-05-28T10:07:48;99481.66;;;20.36;100.00
64616;BME280;51027;42.162;24.754;2023-05-28T10:10:14;99479.84;;;20.37;100.00
64616;BME280;51027;42.162;24.754;2023-05-28T10:12:41;99469.53;;;20.21;100.00
64616;BME280;51027;42.162;24.754;2023-05-28T10:15:07;99429.47;;;20.10;100.00
64616;BME280;51027;42.162;24.754;2023-05-28T10:17:33;99463.16;;;20.77;100.00
64616;BME280;51027;42.162;24.754;2023-05-28T10:20:00;99459.53;;;20.87;100.00
64616;BME280;51027;42.162;24.754;2023-05-28T10:22:25;99450.38;;;20.16;100.00
64616;BME280;51027;42.162;24.754;2023-05-28T10:24:51;99444.06;;;20.38;100.00
64616;BME280;51027;42.162;24.754;2023-05-28T10:27:17;99449.28;;;20.51;100.00
64616;BME280;51027;42.162;24.754;2023-05-28T10:29:45;99444.53;;;20.75;100.00
64616;BME280;51027;42.162;24.754;2023-05-28T10:32:16;99425.25;;;20.81;100.00
64616;BME280;51027;42.162;24.754;2023-05-28T10:34:43;99448.50;;;20.60;100.00
64616;BME280;51027;42.162;24.754;2023-05-28T10:37:10;99426.72;;;20.64;100.00
64616;BME280;51027;42.162;24.754;2023-05-28T10:39:43;99423.25;;;20.41;100.00
64616;BME280;51027;42.162;24.754;2023-05-28T10:42:15;99444.53;;;20.54;100.00
64616;BME280;51027;42.162;24.754;2023-05-28T10:47:32;99432.22;;;20.93;100.00
64616;BME280;51027;42.162;24.754;2023-05-28T10:50:15;99424.09;;;20.74;100.00
64616;BME280;51027;42.162;24.754;2023-05-28T10:52:41;99430.41;;;20.52;100.00
64616;BME280;51027;42.162;24.754;2023-05-28T10:55:11;99436.53;;;20.43;100.00
64616;BME280;51027;42.162;24.754;2023-05-28T10:57:45;99433.13;;;20.09;100.00
64616;BME280;51027;42.162;24.754;2023-05-28T11:00:24;99425.34;;;19.74;100.00
64616;BME280;51027;42.162;24.754;2023-05-28T11:02:54;99432.44;;;19.96;100.00
64616;BME280;51027;42.162;24.754;2023-05-28T11:05:23;99432.56;;;19.94;100.00
64616;BME280;51027;42.162;24.754;2023-05-28T11:07:53;99433.66;;;20.03;100.00
64616;BME280;51027;42.162;24.754;2023-05-28T11:10:20;99430.63;;;19.96;100.00
64616;BME280;51027;42.162;24.754;2023-05-28T11:12:46;99415.97;;;19.79;100.00
64616;BME280;51027;42.162;24.754;2023-05-28T11:15:12;99426.72;;;20.00;100.00
64616;BME280;51027;42.162;24.754;2023-05-28T11:17:43;99417.22;;;20.07;100.00
64616;BME280;51027;42.162;24.754;2023-05-28T11:20:20;99425.06;;;20.20;100.00
64616;BME280;51027;42.162;24.754;2023-05-28T11:22:46;99427.19;;;20.05;100.00
64616;BME280;51027;42.162;24.754;2023-05-28T11:25:12;99426.09;;;20.08;100.00
64616;BME280;51027;42.162;24.754;2023-05-28T11:27:38;99438.63;;;19.96;100.00
64616;BME280;51027;42.162;24.754;2023-05-28T11:30:13;99432.22;;;19.88;100.00
64616;BME280;51027;42.162;24.754;2023-05-28T11:32:40;99427.06;;;19.64;100.00
64616;BME280;51027;42.162;24.754;2023-05-28T11:35:05;99411.00;;;19.19;100.00
64616;BME280;51027;42.162;24.754;2023-05-28T11:37:36;99410.16;;;19.41;100.00
64616;BME280;51027;42.162;24.754;2023-05-28T11:40:04;99392.78;;;19.46;100.00
64616;BME280;51027;42.162;24.754;2023-05-28T11:42:30;99411.13;;;19.73;100.00
64616;BME280;51027;42.162;24.754;2023-05-28T11:44:56;99414.88;;;19.48;100.00
64616;BME280;51027;42.162;24.754;2023-05-28T11:47:23;99423.63;;;19.39;100.00
64616;BME280;51027;42.162;24.754;2023-05-28T11:49:50;99418.28;;;19.39;100.00
64616;BME280;51027;42.162;24.754;2023-05-28T11:52:17;99397.69;;;19.41;100.00
64616;BME280;51027;42.162;24.754;2023-05-28T11:54:45;99420.56;;;19.89;100.00
64616;BME280;51027;42.162;24.754;2023-05-28T11:57:19;99426.78;;;19.78;100.00
64616;BME280;51027;42.162;24.754;2023-05-28T11:59:54;99420.66;;;19.98;100.00
64616;BME280;51027;42.162;24.754;2023-05-28T12:02:22;99388.13;;;19.82;100.00
64616;BME280;51027;42.162;24.754;2023-05-28T12:05:00;99414.84;;;19.93;100.00
64616;BME280;51027;42.162;24.754;2023-05-28T12:07:33;99427.88;;;19.75;100.00
64616;BME280;51027;42.162;24.754;2023-05-28T12:10:06;99418.28;;;19.62;100.00
64616;BME280;51027;42.162;24.754;2023-05-28T12:13:18;99417.94;;;19.44;100.00
64616;BME280;51027;42.162;24.754;2023-05-28T12:15:26;99438.94;;;19.48;100.00
64616;BME280;51027;42.162;24.754;2023-05-28T12:18:00;99430.09;;;19.59;100.00
64616;BME280;51027;42.162;24.754;2023-05-28T12:20:42;99433.13;;;19.43;100.00
64616;BME280;51027;42.162;24.754;2023-05-28T12:23:12;99434.69;;;19.35;100.00
64616;BME280;51027;42.162;24.754;2023-05-28T12:28:10;99437.13;;;19.15;100.00
64616;BME280;51027;42.162;24.754;2023-05-28T12:30:38;99442.84;;;19.22;100.00
64616;BME280;51027;42.162;24.754;2023-05-28T12:33:03;99412.97;;;19.17;100.00
64616;BME280;51027;42.162;24.754;2023-05-28T12:35:29;99436.16;;;19.27;100.00
64616;BME280;51027;42.162;24.754;2023-05-28T12:37:54;99419.28;;;19.27;100.00
64616;BME280;51027;42.162;24.754;2023-05-28T12:40:20;99426.09;;;19.31;100.00
64616;BME280;51027;42.162;24.754;2023-05-28T12:42:45;99412.84;;;19.18;100.00
64616;BME280;51027;42.162;24.754;2023-05-28T12:45:10;99426.81;;;19.33;100.00